sensor_id;sensor_type;location;lat;lon;timestamp;temperature;humidity
12901;DHT22;6518;50.930;5.344;2023-03-26T00:01:23;9.90;90.00
12901;DHT22;6518;50.930;5.344;2023-03-26T00:03:52;9.90;90.00
12901;DHT22;6518;50.930;5.344;2023-03-26T00:06:21;9.80;90.00
12901;DHT22;6518;50.930;5.344;2023-03-26T00:08:49;9.80;90.00
12901;DHT22;6518;50.930;5.344;2023-03-26T00:11:18;9.90;90.10
12901;DHT22;6518;50.930;5.344;2023-03-26T00:13:46;9.80;90.10
12901;DHT22;6518;50.930;5.344;2023-03-26T00:16:14;9.80;90.20
12901;DHT22;6518;50.930;5.344;2023-03-26T00:18:43;9.80;90.20
12901;DHT22;6518;50.930;5.344;2023-03-26T00:21:12;9.80;90.30
12901;DHT22;6518;50.930;5.344;2023-03-26T00:23:39;9.80;90.40
12901;DHT22;6518;50.930;5.344;2023-03-26T00:26:07;9.80;90.40
12901;DHT22;6518;50.930;5.344;2023-03-26T00:28:35;9.80;90.50
12901;DHT22;6518;50.930;5.344;2023-03-26T00:31:06;9.80;90.60
12901;DHT22;6518;50.930;5.344;2023-03-26T00:33:34;9.80;90.60
12901;DHT22;6518;50.930;5.344;2023-03-26T00:36:05;9.80;90.60
12901;DHT22;6518;50.930;5.344;2023-03-26T00:38:34;9.80;90.60
12901;DHT22;6518;50.930;5.344;2023-03-26T00:41:04;9.80;90.70
12901;DHT22;6518;50.930;5.344;2023-03-26T00:43:33;9.80;90.70
12901;DHT22;6518;50.930;5.344;2023-03-26T00:46:00;9.80;90.80
12901;DHT22;6518;50.930;5.344;2023-03-26T00:48:28;9.80;90.80
12901;DHT22;6518;50.930;5.344;2023-03-26T00:50:56;9.80;90.80
12901;DHT22;6518;50.930;5.344;2023-03-26T00:53:24;9.80;90.70
12901;DHT22;6518;50.930;5.344;2023-03-26T00:55:51;9.90;90.80
12901;DHT22;6518;50.930;5.344;2023-03-26T00:58:17;9.90;90.80
12901;DHT22;6518;50.930;5.344;2023-03-26T01:00:51;9.90;90.90
12901;DHT22;6518;50.930;5.344;2023-03-26T01:03:22;9.90;90.90
12901;DHT22;6518;50.930;5.344;2023-03-26T01:05:51;10.00;91.00
12901;DHT22;6518;50.930;5.344;2023-03-26T01:08:24;10.00;91.10
12901;DHT22;6518;50.930;5.344;2023-03-26T01:10:54;10.00;91.10
12901;DHT22;6518;50.930;5.344;2023-03-26T01:13:30;10.00;91.10
12901;DHT22;6518;50.930;5.344;2023-03-26T01:15:57;10.00;91.10
12901;DHT22;6518;50.930;5.344;2023-03-26T01:18:28;10.00;91.20
12901;DHT22;6518;50.930;5.344;2023-03-26T01:20:59;10.10;91.30
12901;DHT22;6518;50.930;5.344;2023-03-26T01:23:40;10.10;91.50
12901;DHT22;6518;50.930;5.344;2023-03-26T01:26:18;10.10;91.50
12901;DHT22;6518;50.930;5.344;2023-03-26T01:28:48;10.10;91.60
12901;DHT22;6518;50.930;5.344;2023-03-26T01:31:22;10.10;91.70
12901;DHT22;6518;50.930;5.344;2023-03-26T01:33:57;10.10;92.20
12901;DHT22;6518;50.930;5.344;2023-03-26T01:36:40;10.10;92.40
12901;DHT22;6518;50.930;5.344;2023-03-26T01:39:15;10.10;92.60
12901;DHT22;6518;50.930;5.344;2023-03-26T01:41:47;10.10;92.70
12901;DHT22;6518;50.930;5.344;2023-03-26T01:44:19;10.10;93.10
12901;DHT22;6518;50.930;5.344;2023-03-26T01:46:49;10.10;93.20
12901;DHT22;6518;50.930;5.344;2023-03-26T01:49:17;10.10;93.40
12901;DHT22;6518;50.930;5.344;2023-03-26T01:51:44;10.10;93.60
12901;DHT22;6518;50.930;5.344;2023-03-26T01:54:14;10.10;93.90
12901;DHT22;6518;50.930;5.344;2023-03-26T01:56:52;10.10;94.20
12901;DHT22;6518;50.930;5.344;2023-03-26T01:59:45;10.10;94.40
12901;DHT22;6518;50.930;5.344;2023-03-26T02:02:18;10.10;94.70
12901;DHT22;6518;50.930;5.344;2023-03-26T02:04:51;10.10;95.10
12901;DHT22;6518;50.930;5.344;2023-03-26T02:07:24;10.10;95.20
12901;DHT22;6518;50.930;5.344;2023-03-26T02:09:58;10.10;95.70
12901;DHT22;6518;50.930;5.344;2023-03-26T02:12:28;10.10;95.70
12901;DHT22;6518;50.930;5.344;2023-03-26T02:14:58;10.10;95.90
12901;DHT22;6518;50.930;5.344;2023-03-26T02:17:25;10.00;96.20
12901;DHT22;6518;50.930;5.344;2023-03-26T02:19:54;10.10;96.70
12901;DHT22;6518;50.930;5.344;2023-03-26T02:22:21;10.10;96.80
12901;DHT22;6518;50.930;5.344;2023-03-26T02:24:54;10.10;97.10
12901;DHT22;6518;50.930;5.344;2023-03-26T02:27:21;10.10;97.10
12901;DHT22;6518;50.930;5.344;2023-03-26T02:29:49;10.10;97.20
12901;DHT22;6518;50.930;5.344;2023-03-26T02:32:16;10.00;97.20
12901;DHT22;6518;50.930;5.344;2023-03-26T02:34:44;10.00;97.30
12901;DHT22;6518;50.930;5.344;2023-03-26T02:37:11;10.10;97.20
12901;DHT22;6518;50.930;5.344;2023-03-26T02:39:38;10.00;97.50
12901;DHT22;6518;50.930;5.344;2023-03-26T02:42:05;10.00;97.60
12901;DHT22;6518;50.930;5.344;2023-03-26T02:44:32;10.00;97.80
12901;DHT22;6518;50.930;5.344;2023-03-26T02:47:00;10.00;97.90
12901;DHT22;6518;50.930;5.344;2023-03-26T02:49:27;10.00;98.30
12901;DHT22;6518;50.930;5.344;2023-03-26T02:51:54;10.00;98.30
12901;DHT22;6518;50.930;5.344;2023-03-26T02:54:21;10.00;98.30
12901;DHT22;6518;50.930;5.344;2023-03-26T02:56:48;10.00;98.50
12901;DHT22;6518;50.930;5.344;2023-03-26T02:59:15;10.00;98.80
12901;DHT22;6518;50.930;5.344;2023-03-26T03:01:41;10.00;99.10
12901;DHT22;6518;50.930;5.344;2023-03-26T03:04:10;10.00;99.40
12901;DHT22;6518;50.930;5.344;2023-03-26T03:06:37;10.00;99.40
12901;DHT22;6518;50.930;5.344;2023-03-26T03:09:05;10.00;99.60
12901;DHT22;6518;50.930;5.344;2023-03-26T03:11:33;9.90;99.80
12901;DHT22;6518;50.930;5.344;2023-03-26T03:14:00;10.00;99.90
12901;DHT22;6518;50.930;5.344;2023-03-26T03:16:27;9.90;99.90
12901;DHT22;6518;50.930;5.344;2023-03-26T03:18:54;9.90;99.90
12901;DHT22;6518;50.930;5.344;2023-03-26T03:21:24;9.90;99.90
12901;DHT22;6518;50.930;5.344;2023-03-26T03:23:51;9.90;99.90
12901;DHT22;6518;50.930;5.344;2023-03-26T03:26:20;9.90;99.90
12901;DHT22;6518;50.930;5.344;2023-03-26T03:28:47;9.90;99.90
12901;DHT22;6518;50.930;5.344;2023-03-26T03:31:14;9.90;99.90
12901;DHT22;6518;50.930;5.344;2023-03-26T03:33:41;9.90;99.90
12901;DHT22;6518;50.930;5.344;2023-03-26T03:36:09;9.90;99.90
12901;DHT22;6518;50.930;5.344;2023-03-26T03:38:38;9.90;99.90
12901;DHT22;6518;50.930;5.344;2023-03-26T03:41:06;9.90;99.90
12901;DHT22;6518;50.930;5.344;2023-03-26T03:43:33;9.90;99.90
12901;DHT22;6518;50.930;5.344;2023-03-26T03:46:00;9.90;99.90
12901;DHT22;6518;50.930;5.344;2023-03-26T03:48:27;9.80;99.90
12901;DHT22;6518;50.930;5.344;2023-03-26T03:50:54;9.80;99.90
12901;DHT22;6518;50.930;5.344;2023-03-26T03:53:22;9.80;99.90
12901;DHT22;6518;50.930;5.344;2023-03-26T03:55:51;9.80;99.90
12901;DHT22;6518;50.930;5.344;2023-03-26T03:58:19;9.80;99.90
12901;DHT22;6518;50.930;5.344;2023-03-26T04:00:47;9.80;99.90
12901;DHT22;6518;50.930;5.344;2023-03-26T04:03:14;9.80;99.90
12901;DHT22;6518;50.930;5.344;2023-03-26T04:05:41;9.80;99.90
12901;DHT22;6518;50.930;5.344;2023-03-26T04:08:14;9.80;99.90
12901;DHT22;6518;50.930;5.344;2023-03-26T04:10:41;9.80;99.90
12901;DHT22;6518;50.930;5.344;2023-03-26T04:13:10;9.80;99.90
12901;DHT22;6518;50.930;5.344;2023-03-26T04:15:37;9.80;99.90
12901;DHT22;6518;50.930;5.344;2023-03-26T04:18:04;9.80;99.90
12901;DHT22;6518;50.930;5.344;2023-03-26T04:20:35;9.80;99.90
12901;DHT22;6518;50.930;5.344;2023-03-26T04:23:02;9.80;99.90
12901;DHT22;6518;50.930;5.344;2023-03-26T04:25:30;9.80;99.90
12901;DHT22;6518;50.930;5.344;2023-03-26T04:27:59;9.80;99.90
12901;DHT22;6518;50.930;5.344;2023-03-26T04:30:33;9.80;99.90
12901;DHT22;6518;50.930;5.344;2023-03-26T04:33:00;9.80;99.90
12901;DHT22;6518;50.930;5.344;2023-03-26T04:35:31;9.80;99.90
12901;DHT22;6518;50.930;5.344;2023-03-26T04:38:00;9.70;99.90
12901;DHT22;6518;50.930;5.344;2023-03-26T04:40:32;9.70;99.90
12901;DHT22;6518;50.930;5.344;2023-03-26T04:42:59;9.70;99.90
12901;DHT22;6518;50.930;5.344;2023-03-26T04:45:28;9.70;99.90
12901;DHT22;6518;50.930;5.344;2023-03-26T04:47:57;9.70;99.90
12901;DHT22;6518;50.930;5.344;2023-03-26T04:50:24;9.70;99.90
12901;DHT22;6518;50.930;5.344;2023-03-26T04:52:53;9.70;99.90
12901;DHT22;6518;50.930;5.344;2023-03-26T04:55:24;9.80;99.90
12901;DHT22;6518;50.930;5.344;2023-03-26T04:57:55;9.70;99.90
12901;DHT22;6518;50.930;5.344;2023-03-26T05:00:24;9.70;99.90
12901;DHT22;6518;50.930;5.344;2023-03-26T05:02:53;9.70;99.90
12901;DHT22;6518;50.930;5.344;2023-03-26T05:05:24;9.70;99.90
12901;DHT22;6518;50.930;5.344;2023-03-26T05:07:51;9.70;99.90
12901;DHT22;6518;50.930;5.344;2023-03-26T05:10:18;9.70;99.90
12901;DHT22;6518;50.930;5.344;2023-03-26T05:12:45;9.70;99.90
12901;DHT22;6518;50.930;5.344;2023-03-26T05:15:14;9.70;99.90
12901;DHT22;6518;50.930;5.344;2023-03-26T05:17:41;9.70;99.90
12901;DHT22;6518;50.930;5.344;2023-03-26T05:20:14;9.70;99.90
12901;DHT22;6518;50.930;5.344;2023-03-26T05:22:44;9.70;99.90
12901;DHT22;6518;50.930;5.344;2023-03-26T05:25:11;9.70;99.90
12901;DHT22;6518;50.930;5.344;2023-03-26T05:27:38;9.70;99.90
12901;DHT22;6518;50.930;5.344;2023-03-26T05:30:06;9.70;99.90
12901;DHT22;6518;50.930;5.344;2023-03-26T05:32:34;9.70;99.90
12901;DHT22;6518;50.930;5.344;2023-03-26T05:35:03;9.70;99.90
12901;DHT22;6518;50.930;5.344;2023-03-26T05:37:31;9.70;99.90
12901;DHT22;6518;50.930;5.344;2023-03-26T05:39:59;9.60;99.90
12901;DHT22;6518;50.930;5.344;2023-03-26T05:42:26;9.60;99.90
12901;DHT22;6518;50.930;5.344;2023-03-26T05:44:53;9.70;99.90
12901;DHT22;6518;50.930;5.344;2023-03-26T05:47:20;9.60;99.90
12901;DHT22;6518;50.930;5.344;2023-03-26T05:49:47;9.60;99.90
12901;DHT22;6518;50.930;5.344;2023-03-26T05:52:13;9.60;99.90
12901;DHT22;6518;50.930;5.344;2023-03-26T05:54:43;9.60;99.90
12901;DHT22;6518;50.930;5.344;2023-03-26T05:57:11;9.60;99.90
12901;DHT22;6518;50.930;5.344;2023-03-26T05:59:38;9.70;99.90
12901;DHT22;6518;50.930;5.344;2023-03-26T06:02:06;9.60;99.90
12901;DHT22;6518;50.930;5.344;2023-03-26T06:04:34;9.60;99.90
12901;DHT22;6518;50.930;5.344;2023-03-26T06:07:05;9.60;99.90
12901;DHT22;6518;50.930;5.344;2023-03-26T06:09:34;9.70;99.90
12901;DHT22;6518;50.930;5.344;2023-03-26T06:12:03;9.70;99.90
12901;DHT22;6518;50.930;5.344;2023-03-26T06:14:33;9.70;99.90
12901;DHT22;6518;50.930;5.344;2023-03-26T06:17:00;9.70;99.90
12901;DHT22;6518;50.930;5.344;2023-03-26T06:19:26;9.70;99.90
12901;DHT22;6518;50.930;5.344;2023-03-26T06:21:53;9.70;99.90
12901;DHT22;6518;50.930;5.344;2023-03-26T06:24:20;9.70;99.90
12901;DHT22;6518;50.930;5.344;2023-03-26T06:26:47;9.70;99.90
12901;DHT22;6518;50.930;5.344;2023-03-26T06:29:14;9.70;99.90
12901;DHT22;6518;50.930;5.344;2023-03-26T06:31:42;9.70;99.90
12901;DHT22;6518;50.930;5.344;2023-03-26T06:34:09;9.70;99.90
12901;DHT22;6518;50.930;5.344;2023-03-26T06:36:36;9.70;99.90
12901;DHT22;6518;50.930;5.344;2023-03-26T06:39:03;9.70;99.90
12901;DHT22;6518;50.930;5.344;2023-03-26T06:41:31;9.70;99.90
12901;DHT22;6518;50.930;5.344;2023-03-26T06:43:58;9.60;99.90
12901;DHT22;6518;50.930;5.344;2023-03-26T06:46:25;9.70;99.90
12901;DHT22;6518;50.930;5.344;2023-03-26T06:48:54;9.70;99.90
12901;DHT22;6518;50.930;5.344;2023-03-26T06:51:20;9.70;99.90
12901;DHT22;6518;50.930;5.344;2023-03-26T06:53:47;9.70;99.90
12901;DHT22;6518;50.930;5.344;2023-03-26T06:56:14;9.70;99.90
12901;DHT22;6518;50.930;5.344;2023-03-26T06:58:41;9.70;99.90
12901;DHT22;6518;50.930;5.344;2023-03-26T07:01:07;9.70;99.90
12901;DHT22;6518;50.930;5.344;2023-03-26T07:03:34;9.70;99.90
12901;DHT22;6518;50.930;5.344;2023-03-26T07:06:03;9.60;99.90
12901;DHT22;6518;50.930;5.344;2023-03-26T07:08:30;9.60;99.90
12901;DHT22;6518;50.930;5.344;2023-03-26T07:10:57;9.70;99.90
12901;DHT22;6518;50.930;5.344;2023-03-26T07:13:24;9.60;99.90
12901;DHT22;6518;50.930;5.344;2023-03-26T07:15:50;9.70;99.90
12901;DHT22;6518;50.930;5.344;2023-03-26T07:18:17;9.60;99.90
12901;DHT22;6518;50.930;5.344;2023-03-26T07:20:44;9.60;99.90
12901;DHT22;6518;50.930;5.344;2023-03-26T07:23:13;9.60;99.90
12901;DHT22;6518;50.930;5.344;2023-03-26T07:25:45;9.60;99.90
12901;DHT22;6518;50.930;5.344;2023-03-26T07:28:19;9.60;99.90
12901;DHT22;6518;50.930;5.344;2023-03-26T07:30:55;9.60;99.90
12901;DHT22;6518;50.930;5.344;2023-03-26T07:33:28;9.60;99.90
12901;DHT22;6518;50.930;5.344;2023-03-26T07:36:05;9.60;99.90
12901;DHT22;6518;50.930;5.344;2023-03-26T07:38:45;9.60;99.90
12901;DHT22;6518;50.930;5.344;2023-03-26T07:41:16;9.50;99.90
12901;DHT22;6518;50.930;5.344;2023-03-26T07:44:06;9.50;99.90
12901;DHT22;6518;50.930;5.344;2023-03-26T07:46:36;9.50;99.90
12901;DHT22;6518;50.930;5.344;2023-03-26T07:49:04;9.50;99.90
12901;DHT22;6518;50.930;5.344;2023-03-26T07:51:32;9.50;99.90
12901;DHT22;6518;50.930;5.344;2023-03-26T07:54:01;9.60;99.90
12901;DHT22;6518;50.930;5.344;2023-03-26T07:56:32;9.50;99.90
12901;DHT22;6518;50.930;5.344;2023-03-26T07:59:08;9.50;99.90
12901;DHT22;6518;50.930;5.344;2023-03-26T08:01:45;9.50;99.90
12901;DHT22;6518;50.930;5.344;2023-03-26T08:04:41;9.50;99.90
12901;DHT22;6518;50.930;5.344;2023-03-26T08:07:18;9.50;99.90
12901;DHT22;6518;50.930;5.344;2023-03-26T08:09:58;9.50;99.90
12901;DHT22;6518;50.930;5.344;2023-03-26T08:12:32;9.40;99.90
12901;DHT22;6518;50.930;5.344;2023-03-26T08:15:11;9.40;99.90
12901;DHT22;6518;50.930;5.344;2023-03-26T08:17:42;9.40;99.90
12901;DHT22;6518;50.930;5.344;2023-03-26T08:20:18;9.40;99.90
12901;DHT22;6518;50.930;5.344;2023-03-26T08:22:56;9.30;99.90
12901;DHT22;6518;50.930;5.344;2023-03-26T08:25:31;9.20;99.90
12901;DHT22;6518;50.930;5.344;2023-03-26T08:28:07;9.20;99.90
12901;DHT22;6518;50.930;5.344;2023-03-26T08:30:36;9.70;99.90
12901;DHT22;6518;50.930;5.344;2023-03-26T08:33:11;9.20;99.90
12901;DHT22;6518;50.930;5.344;2023-03-26T08:35:38;9.20;99.90
12901;DHT22;6518;50.930;5.344;2023-03-26T08:38:07;9.20;99.90
12901;DHT22;6518;50.930;5.344;2023-03-26T08:44:02;9.20;99.90
12901;DHT22;6518;50.930;5.344;2023-03-26T08:47:00;9.20;99.90
12901;DHT22;6518;50.930;5.344;2023-03-26T08:52:35;9.20;99.90
12901;DHT22;6518;50.930;5.344;2023-03-26T08:55:20;9.30;99.90
12901;DHT22;6518;50.930;5.344;2023-03-26T08:58:36;9.20;99.90
12901;DHT22;6518;50.930;5.344;2023-03-26T09:01:40;9.20;99.90
12901;DHT22;6518;50.930;5.344;2023-03-26T09:04:40;9.20;99.90
12901;DHT22;6518;50.930;5.344;2023-03-26T09:10:37;9.20;99.90
12901;DHT22;6518;50.930;5.344;2023-03-26T09:22:37;9.30;99.90
12901;DHT22;6518;50.930;5.344;2023-03-26T09:25:28;9.20;99.90
12901;DHT22;6518;50.930;5.344;2023-03-26T09:28:33;9.20;99.90
12901;DHT22;6518;50.930;5.344;2023-03-26T09:31:19;9.10;99.90
12901;DHT22;6518;50.930;5.344;2023-03-26T09:33:56;9.20;99.90
12901;DHT22;6518;50.930;5.344;2023-03-26T09:36:54;9.20;99.90
12901;DHT22;6518;50.930;5.344;2023-03-26T09:39:34;9.30;99.90
12901;DHT22;6518;50.930;5.344;2023-03-26T09:42:08;9.20;99.90
12901;DHT22;6518;50.930;5.344;2023-03-26T09:48:02;9.30;99.90
12901;DHT22;6518;50.930;5.344;2023-03-26T09:50:41;9.30;99.90
12901;DHT22;6518;50.930;5.344;2023-03-26T09:53:38;9.30;99.90
12901;DHT22;6518;50.930;5.344;2023-03-26T09:56:14;9.30;99.90
12901;DHT22;6518;50.930;5.344;2023-03-26T09:59:21;9.30;99.90
12901;DHT22;6518;50.930;5.344;2023-03-26T10:01:57;9.30;99.90
12901;DHT22;6518;50.930;5.344;2023-03-26T10:07:44;9.20;99.90
12901;DHT22;6518;50.930;5.344;2023-03-26T10:10:19;9.20;99.90
12901;DHT22;6518;50.930;5.344;2023-03-26T10:12:51;9.20;99.90
12901;DHT22;6518;50.930;5.344;2023-03-26T10:15:30;9.20;99.90
12901;DHT22;6518;50.930;5.344;2023-03-26T10:18:09;9.20;99.90
12901;DHT22;6518;50.930;5.344;2023-03-26T10:20:54;9.20;99.90
12901;DHT22;6518;50.930;5.344;2023-03-26T10:23:33;9.20;99.90
12901;DHT22;6518;50.930;5.344;2023-03-26T10:26:10;9.20;99.90
12901;DHT22;6518;50.930;5.344;2023-03-26T10:28:56;9.30;99.90
12901;DHT22;6518;50.930;5.344;2023-03-26T10:31:35;9.30;99.90
12901;DHT22;6518;50.930;5.344;2023-03-26T10:34:13;9.30;99.90
12901;DHT22;6518;50.930;5.344;2023-03-26T10:36:54;9.30;99.90
12901;DHT22;6518;50.930;5.344;2023-03-26T10:39:45;9.30;99.90
12901;DHT22;6518;50.930;5.344;2023-03-26T10:42:28;9.40;99.90
12901;DHT22;6518;50.930;5.344;2023-03-26T10:45:17;9.30;99.90
12901;DHT22;6518;50.930;5.344;2023-03-26T10:50:52;9.30;99.90
12901;DHT22;6518;50.930;5.344;2023-03-26T10:53:30;9.30;99.90
12901;DHT22;6518;50.930;5.344;2023-03-26T10:56:05;9.30;99.90
12901;DHT22;6518;50.930;5.344;2023-03-26T10:58:35;9.30;99.90
12901;DHT22;6518;50.930;5.344;2023-03-26T11:01:04;9.40;99.90
12901;DHT22;6518;50.930;5.344;2023-03-26T11:03:47;9.40;99.90
12901;DHT22;6518;50.930;5.344;2023-03-26T11:06:36;9.40;99.90
12901;DHT22;6518;50.930;5.344;2023-03-26T11:09:18;9.40;99.90
12901;DHT22;6518;50.930;5.344;2023-03-26T11:11:52;9.50;99.90
12901;DHT22;6518;50.930;5.344;2023-03-26T11:14:27;9.50;99.90
12901;DHT22;6518;50.930;5.344;2023-03-26T11:17:01;9.50;99.90
12901;DHT22;6518;50.930;5.344;2023-03-26T11:19:34;9.50;99.90
12901;DHT22;6518;50.930;5.344;2023-03-26T11:22:11;9.50;99.90
12901;DHT22;6518;50.930;5.344;2023-03-26T11:27:41;9.50;99.90
12901;DHT22;6518;50.930;5.344;2023-03-26T11:30:20;9.40;99.90
12901;DHT22;6518;50.930;5.344;2023-03-26T11:32:52;9.40;99.90
12901;DHT22;6518;50.930;5.344;2023-03-26T11:35:23;9.40;99.90
12901;DHT22;6518;50.930;5.344;2023-03-26T11:37:52;9.40;99.90
12901;DHT22;6518;50.930;5.344;2023-03-26T11:40:24;9.40;99.90
12901;DHT22;6518;50.930;5.344;2023-03-26T11:42:57;9.40;99.90
12901;DHT22;6518;50.930;5.344;2023-03-26T11:45:27;9.50;99.90
12901;DHT22;6518;50.930;5.344;2023-03-26T11:48:00;9.50;99.90
12901;DHT22;6518;50.930;5.344;2023-03-26T11:50:31;9.40;99.90
12901;DHT22;6518;50.930;5.344;2023-03-26T11:53:05;9.30;99.90
12901;DHT22;6518;50.930;5.344;2023-03-26T11:55:37;9.30;99.90
12901;DHT22;6518;50.930;5.344;2023-03-26T11:58:24;9.30;99.90
12901;DHT22;6518;50.930;5.344;2023-03-26T12:00:54;9.30;99.90
12901;DHT22;6518;50.930;5.344;2023-03-26T12:03:21;9.30;99.90
12901;DHT22;6518;50.930;5.344;2023-03-26T12:05:50;9.30;99.90
12901;DHT22;6518;50.930;5.344;2023-03-26T12:08:20;9.40;99.90
12901;DHT22;6518;50.930;5.344;2023-03-26T12:10:57;9.40;99.90
12901;DHT22;6518;50.930;5.344;2023-03-26T12:13:32;9.40;99.90
12901;DHT22;6518;50.930;5.344;2023-03-26T12:16:05;9.40;99.90
12901;DHT22;6518;50.930;5.344;2023-03-26T12:18:33;9.40;99.90
12901;DHT22;6518;50.930;5.344;2023-03-26T12:21:03;9.40;99.90
12901;DHT22;6518;50.930;5.344;2023-03-26T12:23:36;8.80;99.90
12901;DHT22;6518;50.930;5.344;2023-03-26T12:26:12;9.40;99.90
12901;DHT22;6518;50.930;5.344;2023-03-26T12:28:45;9.40;99.90
12901;DHT22;6518;50.930;5.344;2023-03-26T12:31:13;9.40;99.90
12901;DHT22;6518;50.930;5.344;2023-03-26T12:33:43;9.40;99.90
12901;DHT22;6518;50.930;5.344;2023-03-26T12:36:19;9.40;99.90
12901;DHT22;6518;50.930;5.344;2023-03-26T12:38:47;10.10;99.90
12901;DHT22;6518;50.930;5.344;2023-03-26T12:41:16;9.50;99.90
12901;DHT22;6518;50.930;5.344;2023-03-26T12:43:46;9.30;99.90
12901;DHT22;6518;50.930;5.344;2023-03-26T12:46:22;9.40;99.90
12901;DHT22;6518;50.930;5.344;2023-03-26T12:48:51;9.40;99.90
12901;DHT22;6518;50.930;5.344;2023-03-26T12:51:25;9.50;99.90
12901;DHT22;6518;50.930;5.344;2023-03-26T12:54:13;9.50;99.90
12901;DHT22;6518;50.930;5.344;2023-03-26T12:56:54;9.50;99.90
12901;DHT22;6518;50.930;5.344;2023-03-26T12:59:40;9.50;99.90
12901;DHT22;6518;50.930;5.344;2023-03-26T13:05:26;9.70;99.90
12901;DHT22;6518;50.930;5.344;2023-03-26T13:08:04;9.70;99.90
12901;DHT22;6518;50.930;5.344;2023-03-26T13:10:40;9.80;99.90
12901;DHT22;6518;50.930;5.344;2023-03-26T13:13:23;9.80;99.90
12901;DHT22;6518;50.930;5.344;2023-03-26T13:15:56;9.80;99.90
12901;DHT22;6518;50.930;5.344;2023-03-26T13:18:33;9.80;99.90
12901;DHT22;6518;50.930;5.344;2023-03-26T13:21:05;9.80;99.90
12901;DHT22;6518;50.930;5.344;2023-03-26T13:23:41;9.80;99.90
12901;DHT22;6518;50.930;5.344;2023-03-26T13:26:20;9.80;99.90
12901;DHT22;6518;50.930;5.344;2023-03-26T13:28:58;9.90;99.90
12901;DHT22;6518;50.930;5.344;2023-03-26T13:31:33;9.90;99.90
12901;DHT22;6518;50.930;5.344;2023-03-26T13:34:08;10.00;99.90
12901;DHT22;6518;50.930;5.344;2023-03-26T13:36:43;10.10;99.90
12901;DHT22;6518;50.930;5.344;2023-03-26T13:39:20;10.10;99.90
12901;DHT22;6518;50.930;5.344;2023-03-26T13:42:05;10.20;99.90
12901;DHT22;6518;50.930;5.344;2023-03-26T13:44:43;10.10;99.90
12901;DHT22;6518;50.930;5.344;2023-03-26T13:47:16;10.10;99.90
12901;DHT22;6518;50.930;5.344;2023-03-26T13:49:47;10.10;99.90
12901;DHT22;6518;50.930;5.344;2023-03-26T13:52:20;10.10;99.90
12901;DHT22;6518;50.930;5.344;2023-03-26T13:54:53;10.10;99.90
12901;DHT22;6518;50.930;5.344;2023-03-26T13:57:24;10.10;99.90
12901;DHT22;6518;50.930;5.344;2023-03-26T14:00:00;10.00;99.90
12901;DHT22;6518;50.930;5.344;2023-03-26T14:02:35;10.10;99.90
12901;DHT22;6518;50.930;5.344;2023-03-26T14:05:07;10.10;99.90
12901;DHT22;6518;50.930;5.344;2023-03-26T14:07:41;10.10;99.90
12901;DHT22;6518;50.930;5.344;2023-03-26T14:10:12;10.00;99.90
12901;DHT22;6518;50.930;5.344;2023-03-26T14:12:55;10.00;99.90
12901;DHT22;6518;50.930;5.344;2023-03-26T14:15:27;10.00;99.90
12901;DHT22;6518;50.930;5.344;2023-03-26T14:18:05;9.90;99.90
12901;DHT22;6518;50.930;5.344;2023-03-26T14:21:00;9.90;99.90
12901;DHT22;6518;50.930;5.344;2023-03-26T14:26:49;9.90;99.90
12901;DHT22;6518;50.930;5.344;2023-03-26T14:29:29;9.80;99.90
12901;DHT22;6518;50.930;5.344;2023-03-26T14:32:11;9.80;99.90
12901;DHT22;6518;50.930;5.344;2023-03-26T14:34:56;9.80;99.90
12901;DHT22;6518;50.930;5.344;2023-03-26T14:40:29;9.90;99.90
12901;DHT22;6518;50.930;5.344;2023-03-26T14:43:26;9.90;99.90
12901;DHT22;6518;50.930;5.344;2023-03-26T14:46:06;9.90;99.90
12901;DHT22;6518;50.930;5.344;2023-03-26T14:49:03;9.80;99.90
12901;DHT22;6518;50.930;5.344;2023-03-26T14:51:43;9.80;99.90
12901;DHT22;6518;50.930;5.344;2023-03-26T14:54:14;9.70;99.90
12901;DHT22;6518;50.930;5.344;2023-03-26T14:56:52;9.60;99.90
12901;DHT22;6518;50.930;5.344;2023-03-26T15:00:03;9.60;99.90
12901;DHT22;6518;50.930;5.344;2023-03-26T15:06:25;9.80;99.90
12901;DHT22;6518;50.930;5.344;2023-03-26T15:09:35;9.80;99.90
12901;DHT22;6518;50.930;5.344;2023-03-26T15:12:17;9.80;99.90
12901;DHT22;6518;50.930;5.344;2023-03-26T15:27:56;9.60;99.90
12901;DHT22;6518;50.930;5.344;2023-03-26T15:30:48;9.50;99.90
12901;DHT22;6518;50.930;5.344;2023-03-26T15:33:47;9.60;99.90
12901;DHT22;6518;50.930;5.344;2023-03-26T15:36:44;9.60;99.90
12901;DHT22;6518;50.930;5.344;2023-03-26T15:39:49;9.60;99.90
12901;DHT22;6518;50.930;5.344;2023-03-26T15:42:42;9.50;99.90
12901;DHT22;6518;50.930;5.344;2023-03-26T15:45:25;9.50;99.90
12901;DHT22;6518;50.930;5.344;2023-03-26T15:50:56;9.50;99.90
12901;DHT22;6518;50.930;5.344;2023-03-26T15:53:33;9.50;99.90
12901;DHT22;6518;50.930;5.344;2023-03-26T15:56:12;9.50;99.90
12901;DHT22;6518;50.930;5.344;2023-03-26T15:58:48;9.50;99.90
12901;DHT22;6518;50.930;5.344;2023-03-26T16:01:27;9.50;99.90
12901;DHT22;6518;50.930;5.344;2023-03-26T16:06:58;9.50;99.90
12901;DHT22;6518;50.930;5.344;2023-03-26T16:09:43;9.40;99.90
12901;DHT22;6518;50.930;5.344;2023-03-26T16:12:32;9.40;99.90
12901;DHT22;6518;50.930;5.344;2023-03-26T16:15:26;9.50;99.90
12901;DHT22;6518;50.930;5.344;2023-03-26T16:18:29;9.40;99.90
12901;DHT22;6518;50.930;5.344;2023-03-26T16:24:16;9.40;99.90
12901;DHT22;6518;50.930;5.344;2023-03-26T16:26:53;9.40;99.90
12901;DHT22;6518;50.930;5.344;2023-03-26T16:29:26;9.40;99.90
12901;DHT22;6518;50.930;5.344;2023-03-26T16:32:10;9.40;99.90
12901;DHT22;6518;50.930;5.344;2023-03-26T16:34:44;9.30;99.90
12901;DHT22;6518;50.930;5.344;2023-03-26T16:37:39;9.30;99.90
12901;DHT22;6518;50.930;5.344;2023-03-26T16:40:29;9.30;99.90
12901;DHT22;6518;50.930;5.344;2023-03-26T16:43:05;9.30;99.90
12901;DHT22;6518;50.930;5.344;2023-03-26T16:45:38;9.20;99.90
12901;DHT22;6518;50.930;5.344;2023-03-26T16:48:20;9.20;99.90
12901;DHT22;6518;50.930;5.344;2023-03-26T16:50:53;9.10;99.90
12901;DHT22;6518;50.930;5.344;2023-03-26T16:53:36;9.00;99.90
12901;DHT22;6518;50.930;5.344;2023-03-26T16:56:14;8.90;99.90
12901;DHT22;6518;50.930;5.344;2023-03-26T16:58:52;8.90;99.90
12901;DHT22;6518;50.930;5.344;2023-03-26T17:01:28;8.90;99.90
12901;DHT22;6518;50.930;5.344;2023-03-26T17:04:04;8.80;99.90
12901;DHT22;6518;50.930;5.344;2023-03-26T17:09:40;8.70;99.90
12901;DHT22;6518;50.930;5.344;2023-03-26T17:12:15;8.70;99.90
12901;DHT22;6518;50.930;5.344;2023-03-26T17:14:53;8.60;99.90
12901;DHT22;6518;50.930;5.344;2023-03-26T17:17:31;8.60;99.90
12901;DHT22;6518;50.930;5.344;2023-03-26T17:20:09;8.50;99.90
12901;DHT22;6518;50.930;5.344;2023-03-26T17:22:43;8.50;99.90
12901;DHT22;6518;50.930;5.344;2023-03-26T17:25:21;8.50;99.90
12901;DHT22;6518;50.930;5.344;2023-03-26T17:27:55;8.50;99.90
12901;DHT22;6518;50.930;5.344;2023-03-26T17:30:37;8.50;99.90
12901;DHT22;6518;50.930;5.344;2023-03-26T17:33:13;8.40;99.90
12901;DHT22;6518;50.930;5.344;2023-03-26T17:35:48;8.40;99.90
12901;DHT22;6518;50.930;5.344;2023-03-26T17:38:55;8.40;99.90
12901;DHT22;6518;50.930;5.344;2023-03-26T17:41:52;8.40;99.90
12901;DHT22;6518;50.930;5.344;2023-03-26T17:44:40;8.40;99.90
12901;DHT22;6518;50.930;5.344;2023-03-26T17:47:18;8.40;99.90
12901;DHT22;6518;50.930;5.344;2023-03-26T17:49:48;8.40;99.90
12901;DHT22;6518;50.930;5.344;2023-03-26T17:52:21;8.40;99.90
12901;DHT22;6518;50.930;5.344;2023-03-26T17:54:52;8.40;99.90